Time;durP1;ratioP1;P1;durP2;ratioP2;P2;SDS_P1;SDS_P2;PMS_P1;PMS_P2;Temp;Humidity;BMP_temperature;BMP_pressure;BME280_temperature;BME280_humidity;BME280_pressure;Samples;Min_cycle;Max_cycle;Signal;HPM_P1;HPM_P2
2023/08/09 00:01:02;;;;;;;7.10;3.85;;;14.00;99.90;;;-144.05;92.01;56957.16;6186221;23;20079;-85
2023/08/09 00:03:28;;;;;;;4.10;3.22;;;13.90;99.90;;;-144.05;91.73;56938.03;6159412;23;20063;-85
2023/08/09 00:05:54;;;;;;;4.35;3.20;;;13.90;99.90;;;-144.05;91.98;56963.53;6159014;23;20041;-86
2023/08/09 00:08:20;;;;;;;3.00;2.58;;;13.90;99.90;;;-144.05;91.86;56982.66;6158699;23;20061;-85
2023/08/09 00:10:46;;;;;;;3.28;2.33;;;13.80;99.90;;;-144.05;91.60;56944.41;6158670;23;20005;-84
2023/08/09 00:13:12;;;;;;;3.15;2.30;;;13.80;99.90;;;-144.05;91.80;56940.16;6158312;23;20135;-87
2023/08/09 00:15:38;;;;;;;2.17;1.42;;;13.80;99.90;;;-144.05;91.90;56955.03;6158249;23;20009;-87
2023/08/09 00:18:05;;;;;;;2.95;1.50;;;13.80;99.90;;;-144.05;92.16;56950.78;6185435;23;20172;-86
2023/08/09 00:20:32;;;;;;;3.17;1.83;;;13.70;99.90;;;-144.05;92.28;56963.53;6158908;23;20047;-86
2023/08/09 00:22:58;;;;;;;2.47;1.63;;;13.70;99.90;;;-144.05;92.44;56944.41;6158641;23;20015;-86
2023/08/09 00:25:25;;;;;;;2.17;1.42;;;13.70;99.90;;;-144.05;92.19;56955.03;6158966;23;20009;-86
2023/08/09 00:27:51;;;;;;;2.72;1.70;;;13.70;99.90;;;-144.05;92.36;56933.78;6158347;23;20012;-87
2023/08/09 00:30:17;;;;;;;2.08;1.70;;;13.70;99.90;;;-144.05;91.89;56974.16;6158635;23;20016;-87
2023/08/09 00:32:43;;;;;;;1.73;1.50;;;13.70;99.90;;;-144.05;92.21;56933.78;6158360;23;20439;-84
2023/08/09 00:35:09;;;;;;;3.17;1.60;;;13.70;99.90;;;-144.05;92.20;56950.78;6158396;23;20040;-85
2023/08/09 00:37:38;;;;;;;2.72;2.00;;;13.70;99.90;;;-144.05;92.30;56957.16;6158507;23;20443;-84
2023/08/09 00:40:11;;;;;;;2.10;1.90;;;13.70;99.90;;;-144.05;92.62;56946.53;6158761;23;20096;-85
2023/08/09 00:42:42;;;;;;;3.50;1.98;;;13.70;99.90;;;-144.05;92.28;56942.28;6170142;23;20009;-83
2023/08/09 00:45:09;;;;;;;3.10;1.42;;;13.70;99.90;;;-144.05;92.46;56933.78;6168334;23;20016;-87
2023/08/09 00:47:36;;;;;;;3.13;1.50;;;13.70;99.90;;;-144.05;92.54;56946.53;6158960;23;20009;-87
2023/08/09 00:50:04;;;;;;;2.47;1.58;;;13.70;99.90;;;-144.05;92.69;56963.53;6158957;23;20427;-84
2023/08/09 00:52:30;;;;;;;1.80;0.82;;;13.70;99.90;;;-144.05;92.88;56946.53;6184869;23;20446;-85
2023/08/09 00:54:59;;;;;;;1.33;0.85;;;13.70;99.90;;;-144.05;92.72;56974.16;6158693;23;20005;-85
2023/08/09 00:57:25;;;;;;;1.27;0.80;;;13.70;99.90;;;-144.05;92.77;56978.41;6158447;23;20009;-85
2023/08/09 00:59:50;;;;;;;1.00;0.90;;;13.60;99.90;;;-144.05;92.49;56967.78;6158373;23;20168;-84
2023/08/09 01:02:16;;;;;;;2.20;0.68;;;13.60;99.90;;;-144.05;92.57;56957.16;6185068;23;20493;-85
2023/08/09 01:04:43;;;;;;;0.50;0.50;;;13.60;99.90;;;-144.05;92.74;56935.91;6158738;23;20044;-84
2023/08/09 01:07:44;;;;;;;0.95;0.80;;;13.60;99.90;;;-144.05;92.97;56972.03;6159058;23;20016;-85
2023/08/09 01:10:33;;;;;;;0.50;0.40;;;13.50;99.90;;;-144.05;92.87;56944.41;6185494;23;20004;-86
2023/08/09 01:13:06;;;;;;;0.95;0.70;;;13.60;99.90;;;-144.05;92.81;56942.28;6159689;23;20005;-86
2023/08/09 01:15:39;;;;;;;0.88;0.70;;;13.50;99.90;;;-144.05;93.02;56946.53;6186432;23;20012;-86
2023/08/09 01:18:08;;;;;;;1.13;0.77;;;13.60;99.90;;;-144.05;92.95;56963.53;6159360;23;20016;-87
2023/08/09 01:20:37;;;;;;;0.63;0.50;;;13.60;99.90;;;-144.05;93.13;56942.28;6158906;23;20083;-86
2023/08/09 01:23:15;;;;;;;1.20;0.98;;;13.60;99.90;;;-144.05;93.05;56959.28;6158112;23;20032;-84
2023/08/09 01:25:43;;;;;;;0.85;0.73;;;13.60;99.90;;;-144.05;93.20;56927.41;6184740;23;20008;-85
2023/08/09 01:28:09;;;;;;;0.70;0.70;;;13.70;99.90;;;-144.05;93.24;56942.28;6158029;23;20013;-86
2023/08/09 01:30:37;;;;;;;1.08;0.80;;;13.60;99.90;;;-144.05;93.29;56963.53;6158448;23;20040;-85
2023/08/09 01:33:03;;;;;;;0.60;0.57;;;13.60;99.90;;;-144.05;93.18;56948.66;6158362;23;20013;-86
2023/08/09 01:35:46;;;;;;;0.85;0.80;;;13.60;99.90;;;-144.05;92.99;56942.28;6158391;23;20039;-84
2023/08/09 01:38:26;;;;;;;0.77;0.77;;;13.50;99.90;;;-144.05;93.27;56955.03;6158523;23;20009;-85
2023/08/09 01:40:54;;;;;;;0.80;0.73;;;13.50;99.90;;;-144.05;93.35;56950.78;6185400;23;20008;-86
2023/08/09 01:43:22;;;;;;;2.42;1.00;;;13.50;99.90;;;-144.05;93.23;56955.03;6157926;23;20020;-84
2023/08/09 01:45:48;;;;;;;1.00;0.80;;;13.60;99.90;;;-144.05;93.41;56959.28;6157920;23;20423;-85
2023/08/09 01:48:14;;;;;;;1.60;1.00;;;13.60;99.90;;;-144.05;93.48;56950.78;6157965;23;20013;-86
2023/08/09 01:50:40;;;;;;;1.13;0.90;;;13.50;99.90;;;-144.05;93.38;56955.03;6157853;23;20403;-86
2023/08/09 01:53:06;;;;;;;0.77;0.70;;;13.50;99.90;;;-144.05;93.40;56942.28;6157639;23;20087;-85
2023/08/09 01:55:33;;;;;;;1.20;0.80;;;13.50;99.90;;;-144.05;93.28;56925.28;6158104;23;20016;-85
2023/08/09 01:57:59;;;;;;;2.08;0.68;;;13.50;99.90;;;-144.05;93.35;56933.78;6157806;23;20088;-84
2023/08/09 02:00:25;;;;;;;1.15;0.80;;;13.50;99.90;;;-144.05;93.10;56969.91;6157757;23;20099;-86
2023/08/09 02:02:53;;;;;;;1.02;0.60;;;13.50;99.90;;;-144.05;93.13;56976.28;6159079;23;20442;-87
2023/08/09 02:05:20;;;;;;;0.73;0.60;;;13.50;99.90;;;-144.05;93.25;56984.78;6196524;23;20039;-84
2023/08/09 02:07:47;;;;;;;0.75;0.70;;;13.50;99.90;;;-144.05;93.24;56972.03;6161594;23;20012;-85
2023/08/09 02:10:13;;;;;;;1.15;1.05;;;13.50;99.90;;;-144.05;93.12;56946.53;6157999;23;20005;-84
2023/08/09 02:12:41;;;;;;;1.20;1.00;;;13.40;99.90;;;-144.05;93.07;56955.03;6184167;23;20005;-84
2023/08/09 02:15:08;;;;;;;1.27;0.85;;;13.40;99.90;;;-144.05;93.14;56955.03;6157546;23;20009;-83
2023/08/09 02:17:35;;;;;;;0.75;0.75;;;13.50;99.90;;;-144.05;93.15;56950.78;6157542;23;20033;-84
2023/08/09 02:20:04;;;;;;;0.98;0.80;;;13.50;99.90;;;-144.05;93.10;56944.41;6184189;23;20059;-84
2023/08/09 02:22:39;;;;;;;1.05;0.82;;;13.50;99.90;;;-144.05;93.22;56952.91;6157213;23;20386;-84
2023/08/09 02:25:07;;;;;;;2.67;0.90;;;13.50;99.90;;;-144.05;93.12;56946.53;6157512;23;20013;-83
2023/08/09 02:27:34;;;;;;;1.60;0.85;;;13.50;99.90;;;-144.05;92.99;56961.41;6157394;23;20024;-84
2023/08/09 02:30:06;;;;;;;1.90;1.00;;;13.50;99.90;;;-144.05;92.90;56946.53;6157423;23;20071;-84
2023/08/09 02:32:36;;;;;;;2.45;1.10;;;13.60;99.90;;;-144.05;92.90;56952.91;6184048;23;20001;-84
2023/08/09 02:35:04;;;;;;;1.30;1.13;;;13.50;99.90;;;-144.05;93.25;56946.53;6157648;23;20021;-83
2023/08/09 02:37:30;;;;;;;1.00;0.80;;;13.50;99.90;;;-144.05;93.17;56948.66;6158301;23;20020;-84
2023/08/09 02:39:56;;;;;;;1.40;0.80;;;13.40;99.90;;;-144.05;93.31;56957.16;6159482;23;20092;-83
2023/08/09 02:42:23;;;;;;;0.77;0.73;;;13.40;99.90;;;-144.05;93.40;56967.78;6185971;23;20012;-83
2023/08/09 02:44:49;;;;;;;1.08;0.80;;;13.40;99.90;;;-144.05;93.39;56984.78;6186029;23;20009;-84
2023/08/09 02:47:16;;;;;;;1.35;1.10;;;13.40;99.90;;;-144.05;93.40;56933.78;6159521;23;20465;-83
2023/08/09 02:49:41;;;;;;;1.60;1.10;;;13.30;99.90;;;-144.05;93.47;56963.53;6159578;23;20044;-83
2023/08/09 02:52:07;;;;;;;1.30;1.20;;;13.20;99.90;;;-144.05;93.66;56955.03;6159319;23;20005;-82
2023/08/09 02:54:33;;;;;;;1.40;1.17;;;13.20;99.90;;;-144.05;93.61;56955.03;6185975;23;20009;-84
2023/08/09 02:56:59;;;;;;;1.95;1.30;;;13.30;99.90;;;-144.05;93.86;56963.53;6159694;23;20423;-84
2023/08/09 02:59:25;;;;;;;1.00;0.90;;;13.30;99.90;;;-144.05;93.59;56948.66;6185767;23;20020;-85
2023/08/09 03:01:51;;;;;;;1.67;1.20;;;13.30;99.90;;;-144.05;93.71;56961.41;6185819;23;20430;-83
2023/08/09 03:04:16;;;;;;;2.60;1.75;;;13.30;99.90;;;-144.05;93.57;56948.66;6186566;23;20009;-83
2023/08/09 03:06:42;;;;;;;3.10;2.20;;;13.20;99.90;;;-144.05;93.74;56969.91;6159484;23;20013;-83
2023/08/09 03:09:08;;;;;;;1.80;1.35;;;13.30;99.90;;;-144.05;93.72;56933.78;6159239;23;20508;-83
2023/08/09 03:11:34;;;;;;;4.30;3.20;;;13.30;99.90;;;-144.05;93.87;56961.41;6185677;23;20522;-83
2023/08/09 03:14:00;;;;;;;2.17;1.80;;;13.30;99.90;;;-144.05;93.80;56933.78;6186090;23;20005;-85
2023/08/09 03:16:26;;;;;;;2.20;1.77;;;13.30;99.90;;;-144.05;93.64;56965.66;6159325;23;20004;-84
2023/08/09 03:18:51;;;;;;;3.20;2.17;;;13.30;99.90;;;-144.05;93.63;56963.53;6159485;23;20012;-84
2023/08/09 03:21:17;;;;;;;4.28;3.67;;;13.30;99.90;;;-144.05;93.73;56938.03;6159196;23;20446;-83
2023/08/09 03:23:43;;;;;;;4.43;3.20;;;13.20;99.90;;;-144.05;93.70;56963.53;6185760;23;20009;-84
2023/08/09 03:26:09;;;;;;;4.35;3.13;;;13.20;99.90;;;-144.05;93.61;56940.16;6185930;23;20005;-85
2023/08/09 03:28:36;;;;;;;4.80;3.50;;;13.10;99.90;;;-144.05;93.69;56969.91;6159129;23;20385;-85
2023/08/09 03:31:03;;;;;;;3.92;3.17;;;13.10;99.90;;;-144.05;93.85;56938.03;6159433;23;20009;-85
2023/08/09 03:33:29;;;;;;;5.82;3.83;;;13.10;99.90;;;-144.05;93.71;56961.41;6159405;23;20014;-83
2023/08/09 03:35:55;;;;;;;6.65;4.60;;;13.10;99.90;;;-144.05;93.84;56950.78;6185824;23;20044;-84
2023/08/09 03:38:21;;;;;;;10.02;6.45;;;13.10;99.90;;;-144.05;94.16;56982.66;6185719;23;20389;-83
2023/08/09 03:40:47;;;;;;;8.77;5.40;;;13.10;99.90;;;-144.05;94.01;56976.28;6159619;23;20411;-83
2023/08/09 03:43:12;;;;;;;13.82;7.20;;;13.20;99.90;;;-144.05;94.07;56961.41;6159274;23;20351;-85
2023/08/09 03:45:38;;;;;;;12.95;9.05;;;13.20;99.90;;;-144.05;94.23;56959.28;6194219;23;20009;-82
2023/08/09 03:48:04;;;;;;;13.43;8.98;;;13.20;99.90;;;-144.05;94.23;56952.91;6173416;23;20009;-83
2023/08/09 03:50:30;;;;;;;15.85;10.38;;;13.20;99.90;;;-144.05;94.08;56967.78;6186131;23;20001;-84
2023/08/09 03:52:56;;;;;;;18.02;10.20;;;13.20;99.90;;;-144.05;93.87;56969.91;6159560;23;20032;-85
2023/08/09 03:55:22;;;;;;;25.90;13.32;;;13.20;99.90;;;-144.05;94.13;56944.41;6159545;23;20044;-83
2023/08/09 03:57:48;;;;;;;20.15;11.13;;;13.20;99.90;;;-144.05;94.13;56972.03;6159308;23;20354;-83
2023/08/09 04:00:18;;;;;;;18.98;13.05;;;13.30;99.90;;;-144.05;93.73;56959.28;6186017;23;20009;-83
2023/08/09 04:02:45;;;;;;;19.17;10.82;;;13.20;99.90;;;-144.05;93.88;56957.16;6183840;23;20012;-83
2023/08/09 04:05:12;;;;;;;19.67;12.13;;;13.30;99.90;;;-144.05;93.80;56946.53;6159294;23;20327;-83
2023/08/09 04:07:38;;;;;;;19.15;11.55;;;13.30;99.90;;;-144.05;93.94;56946.53;6159297;23;20013;-83
2023/08/09 04:10:09;;;;;;;19.65;11.38;;;13.30;99.90;;;-144.05;93.91;56955.03;6159059;23;20056;-85
2023/08/09 04:12:36;;;;;;;24.67;13.70;;;13.30;99.90;;;-144.05;94.03;56946.53;6185359;23;20043;-84
2023/08/09 04:15:06;;;;;;;20.17;11.20;;;13.30;99.90;;;-144.05;93.92;56967.78;6159051;23;20009;-83
2023/08/09 04:17:32;;;;;;;19.83;11.45;;;13.30;99.90;;;-144.05;93.85;56963.53;6185648;23;20001;-84
2023/08/09 04:20:04;;;;;;;18.20;10.43;;;13.30;99.90;;;-144.05;93.94;56942.28;6185012;23;20032;-83
2023/08/09 04:22:29;;;;;;;24.02;14.77;;;13.40;99.90;;;-144.05;93.71;56980.53;6184759;23;20088;-84
2023/08/09 04:24:55;;;;;;;21.20;13.85;;;13.40;99.90;;;-144.05;93.59;56972.03;6185586;23;20036;-84
2023/08/09 04:27:22;;;;;;;21.50;12.95;;;13.40;99.90;;;-144.05;93.75;56952.91;6185013;23;20111;-84
2023/08/09 04:29:48;;;;;;;24.48;13.93;;;13.40;99.90;;;-144.05;93.80;56933.78;6185097;23;20001;-84
2023/08/09 04:32:14;;;;;;;20.60;14.10;;;13.40;99.90;;;-144.05;93.79;56972.03;6158626;23;20012;-85
2023/08/09 04:34:40;;;;;;;19.38;13.88;;;13.40;99.90;;;-144.05;93.71;56967.78;6158586;23;20351;-84
2023/08/09 04:37:05;;;;;;;22.00;14.52;;;13.50;99.90;;;-144.05;93.70;56976.28;6158515;23;20013;-84
2023/08/09 04:39:33;;;;;;;23.15;15.25;;;13.40;99.90;;;-144.05;93.64;56965.66;6185668;23;20075;-85
2023/08/09 04:41:59;;;;;;;20.80;14.70;;;13.40;99.90;;;-144.05;93.63;56959.28;6166188;23;20062;-85
2023/08/09 04:44:25;;;;;;;19.10;13.65;;;13.50;99.90;;;-144.05;93.48;56944.41;6160085;23;20013;-85
2023/08/09 04:46:51;;;;;;;22.20;16.10;;;13.40;99.90;;;-144.05;93.40;56978.41;6185525;23;20056;-84
2023/08/09 04:49:17;;;;;;;21.00;14.43;;;13.40;99.90;;;-144.05;93.33;56929.53;6185101;23;20312;-85
2023/08/09 04:51:43;;;;;;;20.88;13.75;;;13.40;99.90;;;-144.05;92.86;56955.03;6158995;23;20020;-83
2023/08/09 04:54:08;;;;;;;16.50;11.38;;;13.30;99.90;;;-144.05;92.90;56959.28;6158768;23;20132;-84
2023/08/09 04:56:34;;;;;;;17.67;13.00;;;13.30;99.90;;;-144.05;92.94;56959.28;6158714;23;20025;-84
2023/08/09 04:59:00;;;;;;;15.05;11.57;;;13.30;99.90;;;-144.05;93.05;56978.41;6158643;23;20021;-84
2023/08/09 05:01:26;;;;;;;18.38;12.70;;;13.40;99.90;;;-144.05;92.99;56978.41;6158038;23;20020;-84
2023/08/09 05:03:52;;;;;;;22.83;15.20;;;13.40;99.90;;;-144.05;92.77;56938.03;6185347;23;20009;-84
2023/08/09 05:06:18;;;;;;;18.27;13.65;;;13.30;99.90;;;-144.05;92.72;56938.03;6158740;23;20063;-84
2023/08/09 05:08:44;;;;;;;21.05;13.80;;;13.30;99.90;;;-144.05;92.80;56963.53;6158316;23;20040;-83
2023/08/09 05:11:11;;;;;;;24.67;15.95;;;13.30;99.90;;;-144.05;92.72;56946.53;6158538;23;20033;-83
2023/08/09 05:13:37;;;;;;;19.23;13.23;;;13.40;99.90;;;-144.05;92.79;56976.28;6158564;23;20028;-84
2023/08/09 05:16:02;;;;;;;19.15;13.73;;;13.40;99.90;;;-144.05;92.23;56955.03;6158565;23;20055;-85
2023/08/09 05:18:28;;;;;;;17.38;12.38;;;13.40;99.90;;;-144.05;92.63;56967.78;6158622;23;20009;-85
2023/08/09 05:20:54;;;;;;;16.40;11.82;;;13.40;99.90;;;-144.05;92.50;56965.66;6158447;23;20005;-85
2023/08/09 05:23:20;;;;;;;21.85;15.43;;;13.40;99.90;;;-144.05;92.38;56976.28;6184735;23;20092;-84
2023/08/09 05:25:46;;;;;;;21.15;12.50;;;13.40;99.90;;;-144.05;92.24;56946.53;6158453;23;20009;-84
2023/08/09 05:28:14;;;;;;;22.48;16.05;;;13.50;99.90;;;-144.05;92.08;56959.28;6158441;23;20068;-84
2023/08/09 05:30:40;;;;;;;19.80;14.13;;;13.40;99.90;;;-144.05;92.27;56955.03;6160852;23;20013;-84
2023/08/09 05:33:05;;;;;;;23.80;15.32;;;13.50;99.90;;;-144.05;92.03;56955.03;6184937;23;20024;-85
2023/08/09 05:35:31;;;;;;;27.50;17.80;;;13.50;99.90;;;-144.05;91.85;56965.66;6185261;23;20001;-84
2023/08/09 05:37:57;;;;;;;29.90;18.00;;;13.50;99.90;;;-144.05;91.33;56955.03;6185641;23;20055;-85
2023/08/09 05:40:23;;;;;;;22.65;14.98;;;13.50;99.90;;;-144.05;91.73;56957.16;6159427;23;20426;-86
2023/08/09 05:42:49;;;;;;;27.77;17.20;;;13.60;99.90;;;-144.05;90.84;56955.03;6159240;23;20005;-84
2023/08/09 05:45:14;;;;;;;22.50;14.38;;;13.50;99.90;;;-144.05;90.99;56933.78;6185704;23;20008;-83
2023/08/09 05:47:40;;;;;;;27.90;17.15;;;13.60;99.90;;;-144.05;90.91;56957.16;6159419;23;20051;-84
2023/08/09 05:50:07;;;;;;;22.80;15.07;;;13.60;99.90;;;-144.05;90.60;56965.66;6185746;23;20202;-84
2023/08/09 05:52:33;;;;;;;19.90;13.30;;;13.70;99.90;;;-144.05;90.54;56974.16;6185568;23;20379;-84
2023/08/09 05:54:59;;;;;;;29.98;16.75;;;13.80;99.90;;;-144.05;90.12;56967.78;6160157;23;20088;-84
2023/08/09 05:57:27;;;;;;;23.92;15.23;;;13.80;99.90;;;-144.05;89.94;56963.53;6186745;23;20052;-84
2023/08/09 05:59:53;;;;;;;24.02;15.88;;;13.90;99.90;;;-144.05;89.34;56940.16;6159651;23;20001;-85
2023/08/09 06:02:19;;;;;;;22.48;13.52;;;13.90;99.90;;;-144.05;89.10;56952.91;6160251;23;20454;-82
2023/08/09 06:04:44;;;;;;;21.10;13.65;;;13.90;99.90;;;-144.05;89.08;56969.91;6160198;23;20008;-85
2023/08/09 06:07:11;;;;;;;21.00;13.73;;;14.00;99.90;;;-144.05;88.88;56955.03;6160975;23;20012;-84
2023/08/09 06:09:38;;;;;;;22.33;13.82;;;14.10;99.90;;;-144.05;87.79;56959.28;6160157;23;20323;-85
2023/08/09 06:12:05;;;;;;;21.88;13.43;;;14.10;99.90;;;-144.05;86.85;56948.66;6160774;23;20424;-85
2023/08/09 06:14:33;;;;;;;20.77;12.85;;;14.10;99.90;;;-144.05;86.94;56963.53;6161454;23;20009;-83
2023/08/09 06:16:59;;;;;;;21.70;13.25;;;14.10;99.90;;;-144.05;87.10;56950.78;6161254;23;20012;-84
2023/08/09 06:19:25;;;;;;;19.48;13.60;;;14.20;99.90;;;-144.05;86.64;56963.53;6160825;23;20005;-83
2023/08/09 06:21:51;;;;;;;17.80;11.55;;;14.30;99.90;;;-144.05;86.44;56946.53;6160952;23;20024;-83
2023/08/09 06:24:16;;;;;;;23.20;13.65;;;14.30;99.90;;;-144.05;85.42;56938.03;6161238;23;20328;-83
2023/08/09 06:26:43;;;;;;;19.95;13.40;;;14.40;99.90;;;-144.05;84.72;56965.66;6160959;23;20009;-83
2023/08/09 06:29:09;;;;;;;14.77;10.80;;;14.40;99.90;;;-144.05;84.94;56952.91;6186976;23;20342;-85
2023/08/09 06:31:35;;;;;;;16.00;10.98;;;14.50;99.90;;;-144.05;84.83;56965.66;6160111;23;20005;-85
2023/08/09 06:34:01;;;;;;;16.17;11.45;;;14.90;99.90;;;-144.05;83.87;56974.16;6159912;23;20064;-85
2023/08/09 06:36:28;;;;;;;16.70;11.05;;;15.20;99.90;;;-144.05;82.17;56969.91;6159536;23;20039;-84
2023/08/09 06:38:54;;;;;;;17.30;11.00;;;15.30;99.90;;;-144.05;79.94;56948.66;6158756;23;20198;-84
2023/08/09 06:41:20;;;;;;;13.15;9.32;;;15.30;99.90;;;-144.05;79.08;56955.03;6158698;23;20013;-84
2023/08/09 06:43:45;;;;;;;14.48;10.48;;;15.20;99.90;;;-144.05;78.70;56965.66;6158570;23;20015;-83
2023/08/09 06:46:11;;;;;;;15.80;10.60;;;15.20;99.90;;;-144.05;78.35;56942.28;6185287;23;20009;-83
2023/08/09 06:48:37;;;;;;;15.15;9.77;;;15.30;99.90;;;-144.05;78.25;56948.66;6159470;23;20017;-82
2023/08/09 06:51:03;;;;;;;17.17;10.57;;;15.40;99.90;;;-144.05;77.27;56950.78;6160049;23;20372;-85
2023/08/09 06:53:29;;;;;;;14.52;9.65;;;15.50;99.90;;;-144.05;77.54;56974.16;6179844;23;20005;-83
2023/08/09 06:55:55;;;;;;;19.70;12.05;;;15.60;99.90;;;-144.05;76.54;56950.78;6209097;23;20009;-83
2023/08/09 06:58:21;;;;;;;18.02;11.95;;;15.60;99.90;;;-144.05;77.32;56965.66;6166781;23;20009;-85
2023/08/09 07:00:47;;;;;;;14.52;10.13;;;15.50;99.90;;;-144.05;77.58;56944.41;6166178;23;20020;-85
2023/08/09 07:03:14;;;;;;;13.20;9.88;;;15.60;99.90;;;-144.05;77.64;56942.28;6165219;23;20009;-84
2023/08/09 07:05:43;;;;;;;14.27;10.13;;;15.70;99.90;;;-144.05;76.88;56942.28;6191826;23;20004;-87
2023/08/09 07:08:09;;;;;;;14.15;10.13;;;16.00;99.90;;;-144.05;74.71;56963.53;6165473;23;20016;-84
2023/08/09 07:10:35;;;;;;;14.43;10.20;;;16.40;99.90;;;-144.05;71.38;56974.16;6165976;23;20012;-82
2023/08/09 07:13:01;;;;;;;12.85;9.48;;;16.50;99.90;;;-144.05;70.95;56959.28;6160912;23;20009;-83
2023/08/09 07:15:27;;;;;;;13.55;9.98;;;16.40;99.90;;;-144.05;71.54;56952.91;6188607;23;20451;-84
2023/08/09 07:17:53;;;;;;;11.88;8.52;;;16.40;99.90;;;-144.05;71.93;56955.03;6187627;23;20230;-83
2023/08/09 07:20:19;;;;;;;10.32;8.13;;;16.40;99.90;;;-144.05;71.37;56982.66;6160972;23;20016;-84
2023/08/09 07:22:45;;;;;;;14.38;8.40;;;16.30;99.90;;;-144.05;71.67;56965.66;6161689;23;20447;-84
2023/08/09 07:25:13;;;;;;;9.48;7.40;;;16.00;99.90;;;-144.05;71.70;56982.66;6163160;23;20069;-82
2023/08/09 07:27:46;;;;;;;13.27;9.25;;;16.20;99.90;;;-144.05;69.77;56959.28;6163513;23;20335;-85
2023/08/09 07:30:16;;;;;;;10.80;9.10;;;16.60;99.90;;;-144.05;65.87;56959.28;6189722;23;20005;-83
2023/08/09 07:32:43;;;;;;;10.90;8.05;;;17.20;99.90;;;-144.05;64.61;56942.28;6162364;23;20001;-84
2023/08/09 07:35:12;;;;;;;11.98;9.50;;;17.50;99.90;;;-144.05;63.28;56976.28;6162065;23;20004;-85
2023/08/09 07:37:42;;;;;;;10.88;9.13;;;18.00;99.90;;;-144.05;61.24;56980.53;6188388;23;20001;-83
2023/08/09 07:40:13;;;;;;;9.15;7.63;;;18.20;99.90;;;-144.05;61.23;56984.78;6187876;23;20008;-80
2023/08/09 07:42:41;;;;;;;13.50;10.48;;;18.50;99.90;;;-144.05;60.34;56984.78;6161777;23;20009;-81
2023/08/09 07:45:09;;;;;;;11.32;9.23;;;18.70;99.90;;;-144.05;60.47;56997.50;6160751;23;20005;-83
2023/08/09 07:47:35;;;;;;;11.48;9.02;;;18.70;99.90;;;-144.05;61.49;56980.53;6161069;23;20020;-82
2023/08/09 07:50:01;;;;;;;10.40;7.97;;;18.40;99.90;;;-144.05;62.72;56991.13;6161021;23;20099;-83
2023/08/09 07:52:27;;;;;;;9.18;6.88;;;18.00;99.90;;;-144.05;63.57;56989.00;6160874;23;20028;-82
2023/08/09 07:54:53;;;;;;;9.13;7.15;;;18.20;99.90;;;-144.05;61.16;56986.91;6160899;23;20096;-84
2023/08/09 07:57:19;;;;;;;33.83;20.75;;;18.50;99.90;;;-144.05;60.19;57003.88;6187640;23;20386;-83
2023/08/09 07:59:44;;;;;;;20.63;13.30;;;19.10;99.90;;;-144.05;60.74;57006.00;6160013;23;20343;-84
2023/08/09 08:02:10;;;;;;;11.32;7.85;;;19.20;99.90;;;-144.05;58.50;56989.00;6160365;23;20005;-82
2023/08/09 08:04:36;;;;;;;8.68;6.38;;;19.00;99.90;;;-144.05;58.06;56963.53;6160929;23;20477;-83
2023/08/09 08:07:03;;;;;;;8.52;6.47;;;19.10;99.90;;;-144.05;57.53;57001.75;6163215;23;20040;-84
2023/08/09 08:09:32;;;;;;;7.63;5.88;;;19.30;99.90;;;-144.05;54.71;57027.25;6186510;23;20502;-83
2023/08/09 08:11:59;;;;;;;6.25;4.90;;;19.50;99.90;;;-144.05;54.91;56993.25;6160549;23;20091;-84
2023/08/09 08:14:25;;;;;;;8.90;5.40;;;19.70;99.90;;;-144.05;54.82;57018.75;6188482;23;20067;-84
2023/08/09 08:16:51;;;;;;;8.45;5.50;;;20.10;99.90;;;-144.05;54.17;57027.25;6165046;23;20005;-83
2023/08/09 08:19:17;;;;;;;7.35;5.90;;;19.90;99.90;;;-144.05;56.35;56978.41;6163208;23;20016;-84
2023/08/09 08:21:43;;;;;;;8.30;5.32;;;19.40;99.90;;;-144.05;58.22;56995.38;6161085;23;20013;-83
2023/08/09 08:24:10;;;;;;;8.65;5.03;;;19.00;99.90;;;-144.05;59.42;56993.25;6161204;23;20009;-84
2023/08/09 08:26:36;;;;;;;7.65;5.15;;;18.80;99.90;;;-144.05;57.60;56982.66;6161518;23;20013;-82
2023/08/09 08:29:02;;;;;;;6.43;5.07;;;18.70;99.90;;;-144.05;57.43;56982.66;6160910;23;20016;-83
2023/08/09 08:31:28;;;;;;;6.68;5.75;;;19.00;99.90;;;-144.05;54.26;56995.38;6161121;23;20031;-83
2023/08/09 08:33:54;;;;;;;7.78;5.40;;;19.30;99.90;;;-144.05;53.66;57003.88;6188492;23;20048;-83
2023/08/09 08:36:22;;;;;;;5.25;4.40;;;19.30;99.90;;;-144.05;54.07;57012.38;6160874;23;20068;-83
2023/08/09 08:38:50;;;;;;;9.57;6.40;;;19.60;99.90;;;-144.05;53.80;56980.53;6160838;23;20354;-83
2023/08/09 08:41:16;;;;;;;8.48;4.85;;;19.90;99.90;;;-144.05;53.90;56997.50;6186293;23;20441;-83
2023/08/09 08:43:44;;;;;;;6.32;5.25;;;20.30;99.90;;;-144.05;50.38;56989.00;6186382;23;20005;-83
2023/08/09 08:46:18;;;;;;;6.78;5.30;;;20.30;99.90;;;-144.05;49.77;56997.50;6185903;23;20005;-85
2023/08/09 08:48:48;;;;;;;6.05;4.80;;;20.50;99.90;;;-144.05;50.20;57044.25;6159134;23;20009;-83
2023/08/09 08:51:15;;;;;;;5.43;3.97;;;20.70;99.90;;;-144.05;49.98;57014.50;6159852;23;20017;-83
2023/08/09 08:53:41;;;;;;;6.07;4.78;;;20.70;99.90;;;-144.05;48.49;57006.00;6159059;23;20009;-82
2023/08/09 08:56:07;;;;;;;5.78;4.88;;;20.50;99.90;;;-144.05;47.10;57027.25;6158996;23;20005;-83
2023/08/09 08:58:34;;;;;;;6.25;4.20;;;20.70;99.90;;;-144.05;48.18;57010.25;6158456;23;20434;-84
2023/08/09 09:01:03;;;;;;;5.45;4.22;;;20.50;99.90;;;-144.05;49.23;57025.13;6185573;23;20009;-83
2023/08/09 09:03:29;;;;;;;4.78;3.95;;;20.40;99.90;;;-144.05;48.30;56997.50;6159686;23;20048;-83
2023/08/09 09:05:55;;;;;;;4.93;4.15;;;20.50;99.90;;;-144.05;49.94;57014.50;6185440;23;20009;-83
2023/08/09 09:08:24;;;;;;;5.28;3.95;;;20.80;99.90;;;-144.05;48.34;57020.88;6186483;23;20063;-82
2023/08/09 09:10:54;;;;;;;5.47;4.20;;;21.10;99.90;;;-144.05;45.62;57035.75;6160940;23;20005;-83
2023/08/09 09:13:38;;;;;;;5.32;4.07;;;21.10;99.90;;;-144.05;44.88;57012.38;6188096;23;20069;-82
2023/08/09 09:16:04;;;;;;;5.80;4.03;;;21.10;99.90;;;-144.05;44.54;57052.75;6160958;23;20112;-83
2023/08/09 09:18:30;;;;;;;6.03;4.15;;;21.30;99.90;;;-144.05;44.58;57010.25;6162457;23;20072;-83
2023/08/09 09:20:55;;;;;;;6.63;4.93;;;21.50;99.90;;;-144.05;44.58;57027.25;6162155;23;20013;-84
2023/08/09 09:23:30;;;;;;;5.40;4.40;;;21.70;99.90;;;-144.05;45.43;57027.25;6154297;23;20018;-86
2023/08/09 09:26:12;;;;;;;7.97;4.55;;;21.50;99.90;;;-144.05;45.73;57042.13;6133879;23;20005;-86
2023/08/09 09:28:47;;;;;;;5.95;3.72;;;21.40;99.90;;;-144.05;44.04;57016.63;6136536;23;20025;-85
2023/08/09 09:31:19;;;;;;;6.30;3.75;;;20.90;99.90;;;-144.05;44.37;57020.88;6158541;23;20070;-84
2023/08/09 09:33:51;;;;;;;6.03;3.28;;;20.70;99.90;;;-144.05;44.30;57035.75;6135637;23;20006;-87
2023/08/09 09:36:18;;;;;;;3.35;3.05;;;20.70;99.90;;;-144.05;45.35;57014.50;6134012;23;20025;-84
2023/08/09 09:38:50;;;;;;;5.15;3.60;;;20.90;99.90;;;-144.05;45.23;57044.25;6157352;23;20084;-85
2023/08/09 09:41:16;;;;;;;4.55;3.00;;;21.00;99.90;;;-144.05;43.74;56991.13;6133562;23;20080;-85
2023/08/09 09:43:43;;;;;;;4.18;3.13;;;20.80;99.90;;;-144.05;43.91;57048.50;6136729;23;20033;-85
2023/08/09 09:46:24;;;;;;;5.18;2.95;;;21.00;99.90;;;-144.05;42.02;57010.25;6134451;23;20440;-85
2023/08/09 09:49:03;;;;;;;6.32;3.15;;;21.20;99.90;;;-144.05;43.05;57027.25;6135561;23;20042;-84
2023/08/09 09:51:29;;;;;;;4.85;3.75;;;21.40;99.90;;;-144.05;44.04;57044.25;6134630;23;20372;-86
2023/08/09 09:53:55;;;;;;;5.47;3.60;;;21.30;99.90;;;-144.05;42.77;57029.38;6157272;23;20017;-85
2023/08/09 09:56:22;;;;;;;6.18;4.63;;;21.30;99.90;;;-144.05;41.54;57006.00;6135786;23;20013;-84
2023/08/09 09:58:47;;;;;;;6.45;4.15;;;21.50;99.90;;;-144.05;42.28;57031.50;6135975;23;20424;-87
2023/08/09 10:01:22;;;;;;;5.38;3.42;;;21.80;99.90;;;-144.05;41.11;57035.75;6133271;23;20041;-86